Time;durP1;ratioP1;P1;durP2;ratioP2;P2;SDS_P1;SDS_P2;PMS_P1;PMS_P2;Temp;Humidity;BMP_temperature;BMP_pressure;BME280_temperature;BME280_humidity;BME280_pressure;Samples;Min_cycle;Max_cycle;Signal;HPM_P1;HPM_P2
2022/06/02 00:02:51;;;;;;;11.75;7.97;;;9.10;99.90;;;;;;5051430;28;20087;-66
2022/06/02 00:05:28;;;;;;;8.15;7.38;;;9.00;99.90;;;;;;5051547;28;20403;-64
2022/06/02 00:08:16;;;;;;;7.63;6.82;;;9.00;99.90;;;;;;5051554;28;20045;-66
2022/06/02 00:10:59;;;;;;;7.53;6.68;;;8.90;99.90;;;;;;5050338;28;20049;-65
2022/06/02 00:13:41;;;;;;;6.88;6.18;;;8.90;99.90;;;;;;5050075;28;20045;-66
2022/06/02 00:16:15;;;;;;;5.93;5.32;;;8.90;99.90;;;;;;5051089;28;20575;-65
2022/06/02 00:18:51;;;;;;;6.15;5.55;;;8.90;99.90;;;;;;5051601;28;20037;-65
2022/06/02 00:21:38;;;;;;;6.13;5.53;;;8.90;99.90;;;;;;5050247;28;20079;-66
2022/06/02 00:24:25;;;;;;;6.20;5.30;;;8.80;99.90;;;;;;5051651;28;20049;-66
2022/06/02 00:27:17;;;;;;;5.78;5.20;;;8.80;99.90;;;;;;5050526;28;20037;-66
2022/06/02 00:29:53;;;;;;;5.90;5.30;;;8.80;99.90;;;;;;5051562;28;20036;-66
2022/06/02 00:32:32;;;;;;;5.57;5.00;;;8.80;99.90;;;;;;5051272;28;20033;-65
2022/06/02 00:35:39;;;;;;;5.95;4.45;;;8.70;99.90;;;;;;5051293;28;20507;-65
2022/06/02 00:38:18;;;;;;;3.60;3.30;;;8.70;99.90;;;;;;5012670;28;20488;-66
2022/06/02 00:40:44;;;;;;;3.10;2.60;;;8.70;99.90;;;;;;5012021;28;20048;-65
2022/06/02 00:43:25;;;;;;;2.60;2.40;;;8.60;99.90;;;;;;5012261;28;20121;-65
2022/06/02 00:46:17;;;;;;;4.45;3.33;;;8.50;99.90;;;;;;5012722;28;20542;-65
2022/06/02 00:48:58;;;;;;;3.80;3.40;;;8.50;99.90;;;;;;5009184;28;20052;-65
2022/06/02 00:51:40;;;;;;;3.97;3.58;;;8.50;99.90;;;;;;4992622;28;20057;-66
2022/06/02 00:58:09;;;;;;;5.05;4.13;;;8.40;99.90;;;;;;4992699;28;20513;-66
2022/06/02 01:00:42;;;;;;;5.55;5.05;;;8.40;99.90;;;;;;5008827;28;20061;-66
2022/06/02 01:03:17;;;;;;;5.45;4.68;;;8.40;99.90;;;;;;4992452;28;20058;-65
2022/06/02 01:06:10;;;;;;;6.82;6.13;;;8.40;99.90;;;;;;5008919;28;20592;-65
2022/06/02 01:09:00;;;;;;;7.88;6.07;;;8.40;99.90;;;;;;5008926;28;22884;-66
2022/06/02 01:11:55;;;;;;;7.10;6.40;;;8.40;99.90;;;;;;4992596;28;20042;-66
2022/06/02 01:14:36;;;;;;;7.45;6.75;;;8.40;99.90;;;;;;5013887;28;20053;-66
2022/06/02 01:17:24;;;;;;;10.38;7.80;;;8.40;99.90;;;;;;5028620;28;20160;-66
2022/06/02 01:20:08;;;;;;;7.43;6.63;;;8.40;99.90;;;;;;5028412;28;20389;-65
2022/06/02 01:22:43;;;;;;;7.03;6.32;;;8.30;99.90;;;;;;5011903;28;20098;-65
2022/06/02 01:25:36;;;;;;;5.43;4.80;;;8.30;99.90;;;;;;5018613;28;20137;-65
2022/06/02 01:28:14;;;;;;;3.83;3.17;;;8.30;99.90;;;;;;5049910;28;20051;-66
2022/06/02 01:31:14;;;;;;;3.83;3.25;;;8.20;99.90;;;;;;5049142;28;20090;-66
2022/06/02 01:33:55;;;;;;;4.32;3.28;;;8.20;99.90;;;;;;5049566;28;20044;-65
2022/06/02 01:36:36;;;;;;;3.30;2.70;;;8.20;99.90;;;;;;5046781;28;20479;-65
2022/06/02 01:39:08;;;;;;;5.78;4.30;;;8.10;99.90;;;;;;5050244;28;20048;-66
2022/06/02 01:42:06;;;;;;;4.73;4.03;;;8.00;99.90;;;;;;5048647;28;20044;-65
2022/06/02 01:44:58;;;;;;;5.20;3.63;;;8.00;99.90;;;;;;5050327;28;20115;-65
2022/06/02 01:47:38;;;;;;;3.40;3.10;;;8.00;99.90;;;;;;5050147;28;20044;-65
2022/06/02 01:50:27;;;;;;;3.75;3.40;;;8.00;99.90;;;;;;5048823;28;20037;-65
2022/06/02 01:53:09;;;;;;;4.15;3.50;;;7.90;99.90;;;;;;5049962;28;20044;-66
2022/06/02 01:55:47;;;;;;;2.92;2.67;;;7.90;99.90;;;;;;5052557;28;20084;-66
2022/06/02 01:58:19;;;;;;;4.10;3.70;;;7.80;99.90;;;;;;5052668;28;20052;-65
2022/06/02 02:00:50;;;;;;;4.35;3.95;;;7.80;99.90;;;;;;5053923;28;20427;-65
2022/06/02 02:03:37;;;;;;;4.53;3.55;;;7.70;99.90;;;;;;5054244;28;20063;-65
2022/06/02 02:06:13;;;;;;;4.40;3.80;;;7.80;99.90;;;;;;5054059;28;20041;-65
2022/06/02 02:09:10;;;;;;;4.93;4.28;;;7.70;99.90;;;;;;5052857;28;20132;-66
2022/06/02 02:11:50;;;;;;;4.47;3.90;;;7.70;99.90;;;;;;5052292;28;20060;-65
2022/06/02 02:14:37;;;;;;;4.63;4.15;;;7.70;99.90;;;;;;5054077;28;20458;-65
2022/06/02 02:17:40;;;;;;;4.90;4.50;;;7.70;99.90;;;;;;5054006;28;20514;-65
2022/06/02 02:20:20;;;;;;;6.72;6.03;;;7.60;99.90;;;;;;5054119;28;20044;-66
2022/06/02 02:23:05;;;;;;;6.65;6.03;;;7.60;99.90;;;;;;5053729;28;20086;-65
2022/06/02 02:25:54;;;;;;;6.97;6.38;;;7.60;99.90;;;;;;5053738;28;20087;-66
2022/06/02 02:28:29;;;;;;;5.45;4.95;;;7.60;99.90;;;;;;5053953;28;20044;-65
2022/06/02 02:31:25;;;;;;;5.70;5.20;;;7.60;99.90;;;;;;5052329;28;20048;-65
2022/06/02 02:34:30;;;;;;;6.18;5.57;;;7.60;99.90;;;;;;5052169;28;20048;-65
2022/06/02 02:37:09;;;;;;;6.07;5.47;;;7.60;99.90;;;;;;5052061;28;20524;-65
2022/06/02 02:39:35;;;;;;;5.57;5.07;;;7.60;99.90;;;;;;5052656;28;20545;-65
2022/06/02 02:42:04;;;;;;;5.65;4.80;;;7.50;99.90;;;;;;5035722;28;20128;-65
2022/06/02 02:44:49;;;;;;;5.47;4.97;;;7.60;99.90;;;;;;5052359;28;20172;-65
2022/06/02 02:47:30;;;;;;;6.18;5.57;;;7.60;99.90;;;;;;5052352;28;20039;-65
2022/06/02 02:50:18;;;;;;;6.28;5.68;;;7.50;99.90;;;;;;5052271;28;20500;-66
2022/06/02 02:53:08;;;;;;;6.15;5.57;;;7.50;99.90;;;;;;5053511;28;20075;-65
2022/06/02 02:55:40;;;;;;;6.35;5.78;;;7.50;99.90;;;;;;5052855;28;20049;-65
2022/06/02 02:58:34;;;;;;;5.82;5.28;;;7.50;99.90;;;;;;5052012;28;20041;-65
2022/06/02 03:01:09;;;;;;;6.13;5.28;;;7.50;99.90;;;;;;5051996;28;20145;-65
2022/06/02 03:04:01;;;;;;;5.20;4.70;;;7.50;99.90;;;;;;5051768;28;20080;-66
2022/06/02 03:06:31;;;;;;;4.28;3.88;;;7.40;99.90;;;;;;5050031;28;20132;-67
2022/06/02 03:09:18;;;;;;;4.68;4.28;;;7.40;99.90;;;;;;5051762;28;20461;-66
2022/06/02 03:11:53;;;;;;;4.45;4.05;;;7.40;99.90;;;;;;5050638;28;20040;-66
2022/06/02 03:14:42;;;;;;;4.05;3.67;;;7.40;99.90;;;;;;5051910;28;20476;-65
2022/06/02 03:17:45;;;;;;;4.20;3.80;;;7.40;99.90;;;;;;5051862;28;20112;-64
2022/06/02 03:20:48;;;;;;;4.18;3.83;;;7.30;99.90;;;;;;5051822;28;20033;-64
2022/06/02 03:23:25;;;;;;;4.80;4.40;;;7.30;99.90;;;;;;5050322;28;20041;-66
2022/06/02 03:25:58;;;;;;;4.10;3.55;;;7.30;99.90;;;;;;5047397;28;20311;-65
2022/06/02 03:28:39;;;;;;;5.88;5.38;;;7.30;99.90;;;;;;5049796;28;20033;-66
2022/06/02 03:31:31;;;;;;;6.18;5.63;;;7.30;99.90;;;;;;5049937;28;20598;-65
2022/06/02 03:34:17;;;;;;;6.30;5.70;;;7.30;99.90;;;;;;5050001;28;20041;-65
2022/06/02 03:37:15;;;;;;;5.70;5.20;;;7.30;99.90;;;;;;5049939;28;20055;-66
2022/06/02 03:40:01;;;;;;;5.20;3.97;;;7.30;99.90;;;;;;5051637;28;20044;-66
2022/06/02 03:43:02;;;;;;;3.80;3.40;;;7.30;99.90;;;;;;5050787;28;20068;-66
2022/06/02 03:45:46;;;;;;;3.40;3.10;;;7.30;99.90;;;;;;5028448;28;20033;-65
2022/06/02 03:48:23;;;;;;;3.67;3.38;;;7.30;99.90;;;;;;5028583;28;20084;-64
2022/06/02 03:51:24;;;;;;;3.78;3.38;;;7.30;99.90;;;;;;5012056;28;20498;-65
2022/06/02 03:54:06;;;;;;;4.40;4.00;;;7.30;99.90;;;;;;5020912;28;20053;-65
2022/06/02 03:56:55;;;;;;;5.28;4.75;;;7.30;99.90;;;;;;4974071;28;1089256;-65
2022/06/02 03:59:54;;;;;;;4.82;4.43;;;7.30;99.90;;;;;;5029600;28;20045;-65
2022/06/02 04:02:39;;;;;;;4.80;4.40;;;7.30;99.90;;;;;;5013010;28;20049;-66
2022/06/02 04:05:18;;;;;;;4.50;4.10;;;7.30;99.90;;;;;;5029676;28;20482;-65
2022/06/02 04:08:23;;;;;;;4.68;4.28;;;7.30;99.90;;;;;;5013199;28;20054;-65
2022/06/02 04:11:17;;;;;;;8.10;4.45;;;7.30;99.90;;;;;;4993434;28;20049;-66
2022/06/02 04:14:16;;;;;;;5.15;4.65;;;7.30;99.90;;;;;;5009812;28;20049;-65
2022/06/02 04:16:54;;;;;;;4.75;4.35;;;7.30;99.90;;;;;;5009107;28;20405;-66
2022/06/02 04:22:41;;;;;;;4.32;3.92;;;7.50;99.90;;;;;;5029474;28;20120;-65
2022/06/02 04:25:32;;;;;;;4.55;4.15;;;7.60;99.90;;;;;;5012585;28;20049;-65
2022/06/02 04:28:07;;;;;;;4.60;3.92;;;7.60;99.90;;;;;;5029407;28;20112;-65
2022/06/02 04:30:53;;;;;;;6.00;5.03;;;7.70;99.90;;;;;;5029424;28;20045;-66
2022/06/02 04:33:28;;;;;;;6.28;5.20;;;7.80;99.90;;;;;;5029314;28;20091;-64
2022/06/02 04:36:00;;;;;;;6.65;6.00;;;7.90;99.90;;;;;;5029211;28;20056;-65
2022/06/02 04:38:50;;;;;;;6.72;6.07;;;8.00;99.90;;;;;;5028983;28;20050;-65
2022/06/02 04:41:42;;;;;;;8.35;7.55;;;8.10;99.90;;;;;;5029181;28;20120;-65
2022/06/02 04:44:22;;;;;;;9.60;7.90;;;8.20;99.90;;;;;;5028913;28;20125;-65
2022/06/02 04:47:02;;;;;;;9.57;7.50;;;8.40;99.90;;;;;;5043345;28;20492;-65
2022/06/02 04:49:35;;;;;;;9.25;7.35;;;8.50;99.90;;;;;;5050039;28;20057;-65
2022/06/02 04:52:11;;;;;;;8.07;7.18;;;8.60;99.90;;;;;;5051256;28;20447;-65
2022/06/02 04:54:57;;;;;;;9.02;8.13;;;8.70;99.90;;;;;;5049991;28;20098;-66
2022/06/02 04:57:27;;;;;;;8.43;7.63;;;8.80;99.90;;;;;;5049245;28;20049;-64
2022/06/02 05:00:04;;;;;;;9.20;8.30;;;8.90;99.90;;;;;;5049732;28;20048;-65
2022/06/02 05:02:36;;;;;;;9.00;7.88;;;9.10;99.90;;;;;;5049516;28;20044;-65
2022/06/02 05:05:16;;;;;;;10.13;9.13;;;9.20;99.90;;;;;;5049877;28;20090;-66
2022/06/02 05:07:44;;;;;;;12.02;10.82;;;9.30;99.90;;;;;;5049622;28;20063;-66
2022/06/02 05:10:35;;;;;;;13.95;11.40;;;9.40;99.90;;;;;;5050866;28;20037;-66
2022/06/02 05:13:24;;;;;;;11.48;10.38;;;9.50;99.90;;;;;;5049782;28;20526;-65
2022/06/02 05:15:53;;;;;;;13.30;10.90;;;9.70;99.90;;;;;;5050807;28;20552;-64
2022/06/02 05:18:34;;;;;;;12.70;10.48;;;9.80;99.90;;;;;;5046038;28;20186;-65
2022/06/02 05:21:30;;;;;;;13.38;10.68;;;9.90;99.90;;;;;;5049262;28;20476;-65
2022/06/02 05:24:07;;;;;;;12.45;10.43;;;10.10;99.90;;;;;;5048894;28;20041;-65
2022/06/02 05:26:45;;;;;;;11.85;10.40;;;10.20;99.90;;;;;;5049931;28;20045;-66
2022/06/02 05:29:48;;;;;;;10.45;9.35;;;10.30;99.90;;;;;;5050186;28;20041;-65
2022/06/02 05:32:20;;;;;;;;;;;10.50;99.90;;;;;;5049521;28;20041;-65
2022/06/02 05:34:56;;;;;;;12.18;9.73;;;10.60;99.90;;;;;;5048607;28;19999;-66
2022/06/02 05:38:00;;;;;;;10.82;9.73;;;10.60;99.90;;;;;;5050226;28;20506;-65
2022/06/02 05:40:38;;;;;;;10.68;9.38;;;10.80;99.90;;;;;;5048904;28;20048;-65
2022/06/02 05:43:10;;;;;;;13.52;10.13;;;10.90;99.90;;;;;;5048805;28;20403;-65
2022/06/02 05:45:35;;;;;;;11.50;9.43;;;11.00;99.90;;;;;;5048613;28;20124;-65
2022/06/02 05:48:26;;;;;;;10.63;9.52;;;11.20;99.90;;;;;;5050011;28;20129;-66
2022/06/02 05:51:13;;;;;;;12.25;9.30;;;11.20;99.90;;;;;;5050491;28;20037;-65
2022/06/02 05:54:03;;;;;;;10.90;9.02;;;11.40;99.90;;;;;;5050087;28;20399;-66
2022/06/02 05:57:06;;;;;;;14.13;10.48;;;11.50;99.90;;;;;;5050045;28;20447;-66
2022/06/02 06:00:03;;;;;;;13.00;9.98;;;11.70;99.90;;;;;;5050214;28;20049;-65
2022/06/02 06:02:49;;;;;;;12.02;9.40;;;11.80;99.90;;;;;;5049197;28;20033;-66
2022/06/02 06:05:47;;;;;;;12.90;9.98;;;12.00;99.90;;;;;;5050290;28;20087;-66
2022/06/02 06:08:38;;;;;;;11.13;8.80;;;12.00;99.90;;;;;;5041585;28;20049;-65
2022/06/02 06:11:03;;;;;;;11.23;8.43;;;12.20;99.90;;;;;;5050127;28;20037;-65
2022/06/02 06:13:48;;;;;;;8.02;7.10;;;12.20;99.90;;;;;;5049998;28;20044;-65
2022/06/02 06:16:50;;;;;;;7.85;6.50;;;12.40;99.90;;;;;;5050075;28;20396;-65
2022/06/02 06:19:37;;;;;;;10.52;7.25;;;12.50;99.90;;;;;;5032204;28;20069;-66
2022/06/02 06:22:24;;;;;;;7.50;6.07;;;12.60;99.90;;;;;;5045960;28;20112;-66
2022/06/02 06:24:59;;;;;;;8.35;6.72;;;12.70;99.90;;;;;;5048488;28;21383;-65
2022/06/02 06:27:49;;;;;;;7.53;6.45;;;12.80;99.90;;;;;;5049977;28;20103;-65
2022/06/02 06:30:24;;;;;;;6.97;6.22;;;12.90;99.90;;;;;;5049651;28;20045;-66
2022/06/02 06:33:11;;;;;;;6.40;5.68;;;13.10;99.90;;;;;;5049977;28;20163;-65
2022/06/02 06:35:56;;;;;;;5.30;4.65;;;13.20;99.90;;;;;;5049343;28;20480;-65
2022/06/02 06:38:37;;;;;;;5.00;4.50;;;13.30;99.90;;;;;;5049963;28;20041;-66
2022/06/02 06:41:17;;;;;;;7.03;5.30;;;13.40;99.90;;;;;;5048888;28;20472;-65
2022/06/02 06:44:24;;;;;;;6.88;5.28;;;13.60;99.90;;;;;;5053124;28;20032;-65
2022/06/02 06:46:56;;;;;;;4.47;4.05;;;13.70;99.90;;;;;;5053371;28;20040;-65
2022/06/02 06:49:33;;;;;;;6.20;4.20;;;13.80;99.90;;;;;;5051942;28;20084;-65
2022/06/02 06:52:17;;;;;;;5.10;4.50;;;13.90;99.90;;;;;;5052262;28;20044;-66
2022/06/02 06:55:11;;;;;;;6.57;4.03;;;13.90;99.90;;;;;;5052977;28;20351;-65
2022/06/02 06:57:56;;;;;;;4.28;3.20;;;13.90;99.90;;;;;;5053118;28;20408;-65
2022/06/02 07:00:35;;;;;;;4.15;3.25;;;13.70;99.90;;;;;;5051817;28;20037;-65
2022/06/02 07:03:19;;;;;;;6.53;2.97;;;13.90;99.90;;;;;;5051770;28;20116;-65
2022/06/02 07:05:59;;;;;;;3.88;2.75;;;14.00;99.90;;;;;;5053172;28;20064;-66
2022/06/02 07:08:39;;;;;;;3.28;2.40;;;14.20;99.90;;;;;;5051996;28;20040;-66
2022/06/02 07:11:07;;;;;;;4.07;2.50;;;14.30;99.90;;;;;;5052853;28;20036;-66
2022/06/02 07:13:48;;;;;;;6.15;2.50;;;14.60;99.90;;;;;;5035061;28;20127;-65
2022/06/02 07:16:31;;;;;;;3.05;2.40;;;14.60;99.90;;;;;;5053034;28;20080;-65
2022/06/02 07:19:22;;;;;;;4.75;2.60;;;14.70;99.90;;;;;;5035125;28;20040;-65
2022/06/02 07:22:06;;;;;;;4.53;2.60;;;14.60;99.90;;;;;;5052824;28;20032;-66
2022/06/02 07:25:02;;;;;;;4.32;2.63;;;14.60;99.90;;;;;;5051717;28;20041;-64
2022/06/02 07:27:40;;;;;;;4.32;2.90;;;14.70;99.90;;;;;;5051483;28;20041;-64
2022/06/02 07:30:23;;;;;;;5.05;2.35;;;14.70;99.90;;;;;;5051223;28;20041;-65
2022/06/02 07:33:02;;;;;;;4.05;2.10;;;14.60;99.90;;;;;;5052376;28;20037;-66
2022/06/02 07:36:03;;;;;;;3.10;2.08;;;14.30;99.90;;;;;;5052500;28;20111;-66
2022/06/02 07:38:38;;;;;;;4.30;2.13;;;14.10;99.90;;;;;;5030464;28;20169;-65
2022/06/02 07:41:15;;;;;;;5.03;2.47;;;14.20;99.90;;;;;;5030223;28;20120;-65
2022/06/02 07:44:23;;;;;;;4.40;2.40;;;14.60;99.90;;;;;;5030187;28;20041;-65
2022/06/02 07:47:01;;;;;;;4.65;2.00;;;14.90;99.90;;;;;;5030116;28;20064;-65
2022/06/02 07:49:54;;;;;;;3.70;1.83;;;15.00;99.90;;;;;;5013483;28;20049;-64
2022/06/02 07:52:36;;;;;;;3.30;2.08;;;14.70;99.90;;;;;;5029811;28;20045;-65
2022/06/02 07:55:03;;;;;;;2.95;2.00;;;14.30;99.90;;;;;;5013062;28;20373;-65
2022/06/02 07:57:40;;;;;;;3.63;2.00;;;14.50;99.90;;;;;;5029891;28;20593;-65
2022/06/02 08:00:13;;;;;;;1.95;1.80;;;14.80;99.90;;;;;;5013181;28;20046;-66
2022/06/02 08:03:08;;;;;;;3.60;2.10;;;15.00;99.90;;;;;;5013554;28;20059;-65
2022/06/02 08:05:47;;;;;;;2.05;1.73;;;15.30;99.90;;;;;;5013565;28;20065;-65
2022/06/02 08:08:19;;;;;;;3.80;2.10;;;15.50;99.90;;;;;;5029690;28;20037;-66
2022/06/02 08:11:23;;;;;;;3.67;2.08;;;15.70;99.90;;;;;;5028122;28;20116;-66
2022/06/02 08:14:15;;;;;;;3.38;1.70;;;15.90;99.90;;;;;;5048420;28;20051;-64
2022/06/02 08:16:48;;;;;;;3.20;2.10;;;15.80;99.90;;;;;;5051531;28;20056;-66
2022/06/02 08:19:23;;;;;;;3.30;1.88;;;15.60;99.90;;;;;;5050334;28;20527;-65
2022/06/02 08:21:53;;;;;;;3.05;1.70;;;15.40;99.90;;;;;;5051265;28;20116;-65
2022/06/02 08:24:44;;;;;;;3.50;1.88;;;15.20;99.90;;;;;;5050253;28;20040;-65
2022/06/02 08:27:43;;;;;;;3.50;1.90;;;15.20;99.90;;;;;;5049932;28;20037;-65
2022/06/02 08:30:37;;;;;;;2.83;1.70;;;15.60;99.90;;;;;;5051162;28;20480;-66
2022/06/02 08:33:23;;;;;;;2.88;1.70;;;16.00;99.90;;;;;;5049797;28;20395;-65
2022/06/02 08:36:02;;;;;;;2.78;1.40;;;16.40;99.90;;;;;;5049852;28;20057;-65
2022/06/02 08:38:36;;;;;;;3.30;1.40;;;16.70;99.90;;;;;;5051591;28;20442;-65
2022/06/02 08:41:33;;;;;;;3.92;1.50;;;16.30;99.90;;;;;;5032758;28;20569;-65
2022/06/02 08:44:35;;;;;;;2.38;1.52;;;16.40;99.90;;;;;;5049781;28;20044;-65
2022/06/02 08:47:09;;;;;;;2.88;1.58;;;16.80;99.90;;;;;;5051492;28;20043;-66
2022/06/02 08:49:47;;;;;;;2.28;1.52;;;17.20;99.90;;;;;;5049915;28;20103;-66
2022/06/02 08:52:34;;;;;;;2.92;1.73;;;17.50;99.90;;;;;;5051054;28;20051;-65
2022/06/02 08:55:43;;;;;;;5.00;1.98;;;17.60;99.90;;;;;;5051100;28;20376;-66
2022/06/02 08:58:20;;;;;;;3.55;1.60;;;17.40;99.90;;;;;;5051003;28;20492;-65
2022/06/02 09:01:12;;;;;;;2.03;1.50;;;17.10;99.90;;;;;;5051076;28;20087;-66
2022/06/02 09:04:15;;;;;;;2.77;1.53;;;16.80;99.90;;;;;;5049702;28;20041;-66
2022/06/02 09:06:56;;;;;;;3.00;1.55;;;16.50;99.90;;;;;;5051075;28;20044;-65
2022/06/02 09:09:33;;;;;;;2.92;1.60;;;16.40;99.90;;;;;;5050826;28;20044;-65
2022/06/02 09:12:29;;;;;;;2.25;1.42;;;16.60;99.90;;;;;;5049894;28;20036;-65
2022/06/02 09:15:39;;;;;;;2.08;1.75;;;16.90;99.90;;;;;;5050739;28;20407;-66
2022/06/02 09:18:10;;;;;;;2.83;1.70;;;17.40;99.90;;;;;;5050783;28;20048;-66
2022/06/02 09:21:07;;;;;;;3.35;1.80;;;17.90;99.90;;;;;;5050660;28;20475;-65
2022/06/02 09:23:45;;;;;;;2.25;1.55;;;18.20;99.90;;;;;;5050848;28;20094;-65
2022/06/02 09:26:29;;;;;;;2.53;1.40;;;18.60;99.90;;;;;;5049498;28;20051;-66
2022/06/02 09:29:33;;;;;;;3.50;1.63;;;18.90;99.90;;;;;;5050772;28;20048;-67
2022/06/02 09:32:11;;;;;;;3.78;1.48;;;19.00;99.90;;;;;;5011895;28;20536;-66
2022/06/02 09:34:53;;;;;;;3.58;1.40;;;18.90;99.90;;;;;;4995202;28;20081;-66
2022/06/02 09:37:54;;;;;;;2.65;1.38;;;18.40;99.90;;;;;;5011579;28;20463;-65
2022/06/02 09:40:28;;;;;;;1.63;1.50;;;18.00;99.90;;;;;;4991926;28;20038;-65
2022/06/02 09:43:38;;;;;;;2.40;1.85;;;17.30;99.90;;;;;;5008321;28;20396;-65
2022/06/02 09:46:16;;;;;;;3.13;1.38;;;16.90;99.90;;;;;;4992459;28;20505;-66
2022/06/02 09:49:13;;;;;;;1.83;1.20;;;16.80;99.90;;;;;;4991806;28;20467;-66
2022/06/02 09:51:38;;;;;;;3.05;1.42;;;16.90;99.90;;;;;;5008324;28;20046;-66
2022/06/02 09:54:37;;;;;;;2.83;1.48;;;17.30;99.90;;;;;;5008522;28;20042;-65
2022/06/02 10:00:44;;;;;;;1.90;1.30;;;17.10;99.90;;;;;;5008342;28;20042;-65
2022/06/02 10:03:26;;;;;;;3.33;1.30;;;17.00;99.90;;;;;;5018777;28;20511;-66
2022/06/02 10:06:13;;;;;;;3.88;1.13;;;16.90;99.90;;;;;;5010849;28;20102;-65
2022/06/02 10:09:04;;;;;;;1.60;1.10;;;16.90;99.90;;;;;;5011119;28;20531;-67
2022/06/02 10:11:39;;;;;;;2.92;1.05;;;16.90;99.90;;;;;;5027591;28;20048;-65
2022/06/02 10:14:06;;;;;;;2.85;1.23;;;17.30;99.90;;;;;;5025402;28;20521;-66
2022/06/02 10:16:52;;;;;;;2.72;1.15;;;17.80;99.90;;;;;;5052615;28;20467;-65
2022/06/02 10:19:51;;;;;;;2.47;1.40;;;18.30;99.90;;;;;;5053869;28;20041;-65
2022/06/02 10:22:43;;;;;;;1.42;1.30;;;18.40;99.90;;;;;;5034148;28;20045;-65
2022/06/02 10:25:27;;;;;;;2.33;1.67;;;18.10;99.90;;;;;;5047595;28;20397;-65
2022/06/02 10:28:34;;;;;;;5.97;1.63;;;18.00;99.90;;;;;;5052034;28;20036;-66
2022/06/02 10:31:38;;;;;;;2.92;1.33;;;17.90;99.90;;;;;;5041106;28;20095;-66
2022/06/02 10:34:37;;;;;;;2.20;1.17;;;18.10;99.90;;;;;;5044518;28;20081;-66
2022/06/02 10:37:24;;;;;;;1.30;1.20;;;18.30;99.90;;;;;;5053617;28;20122;-66
2022/06/02 10:40:35;;;;;;;1.40;1.15;;;18.00;99.90;;;;;;5052307;28;20108;-66
2022/06/02 10:43:16;;;;;;;2.00;1.52;;;17.80;99.90;;;;;;5053645;28;20048;-65
2022/06/02 10:46:00;;;;;;;3.08;1.30;;;17.50;99.90;;;;;;5052147;28;20041;-66
2022/06/02 10:49:03;;;;;;;1.70;1.23;;;17.90;99.90;;;;;;5053521;28;20037;-65
2022/06/02 10:52:05;;;;;;;3.28;1.00;;;18.50;99.90;;;;;;5053487;28;20040;-65
2022/06/02 10:54:34;;;;;;;3.40;1.05;;;19.20;99.90;;;;;;5053488;28;20586;-65
2022/06/02 10:57:33;;;;;;;2.15;1.20;;;19.50;99.90;;;;;;5051818;28;20048;-66
2022/06/02 11:00:04;;;;;;;1.45;0.98;;;19.90;99.90;;;;;;5053172;28;20045;-66
2022/06/02 11:02:35;;;;;;;2.85;0.90;;;19.90;99.20;;;;;;5053628;28;20091;-66
2022/06/02 11:05:22;;;;;;;1.80;1.20;;;20.00;99.90;;;;;;5052097;28;20124;-66
2022/06/02 11:08:22;;;;;;;3.17;1.38;;;19.80;99.90;;;;;;5053094;28;20040;-65
2022/06/02 11:10:53;;;;;;;2.05;1.08;;;20.00;99.90;;;;;;5051841;28;20036;-66
2022/06/02 11:13:24;;;;;;;2.07;1.00;;;20.30;99.90;;;;;;5053303;28;20380;-66
2022/06/02 11:16:09;;;;;;;1.25;1.05;;;20.40;99.90;;;;;;5052922;28;20068;-66
2022/06/02 11:18:49;;;;;;;3.15;1.40;;;20.60;99.90;;;;;;5052953;28;20411;-66
2022/06/02 11:21:40;;;;;;;2.00;1.10;;;20.80;99.90;;;;;;5035058;28;20048;-65
2022/06/02 11:24:30;;;;;;;1.25;0.93;;;20.90;99.90;;;;;;5052592;28;20116;-66
2022/06/02 11:27:19;;;;;;;1.50;1.00;;;21.00;99.90;;;;;;5051606;28;20123;-66
2022/06/02 11:30:02;;;;;;;0.80;0.80;;;21.00;98.20;;;;;;5051207;28;20091;-66
2022/06/02 11:32:56;;;;;;;1.50;0.90;;;20.60;97.50;;;;;;5052700;28;20033;-66
2022/06/02 11:35:38;;;;;;;2.08;0.93;;;20.90;99.00;;;;;;5052533;28;20460;-66
2022/06/02 11:38:24;;;;;;;0.70;0.70;;;20.70;97.20;;;;;;5052755;28;20517;-65
2022/06/02 11:41:27;;;;;;;1.05;0.75;;;20.20;97.40;;;;;;5051261;28;20037;-66
2022/06/02 11:43:52;;;;;;;;;;;19.80;98.50;;;;;;5052697;28;20485;-66
2022/06/02 11:46:56;;;;;;;3.35;0.75;;;19.30;98.80;;;;;;5034521;28;19999;-66
2022/06/02 11:49:39;;;;;;;3.17;0.80;;;19.20;99.30;;;;;;5051315;28;20041;-66
2022/06/02 11:52:29;;;;;;;1.25;0.90;;;19.40;99.90;;;;;;5052181;28;20048;-67
2022/06/02 11:55:30;;;;;;;1.70;1.17;;;19.50;98.30;;;;;;5048893;28;20045;-66
2022/06/02 11:58:33;;;;;;;1.30;1.13;;;19.60;97.90;;;;;;5051656;28;20056;-66
2022/06/02 12:01:12;;;;;;;2.50;1.38;;;19.60;98.20;;;;;;5051481;28;20136;-66
2022/06/02 12:04:11;;;;;;;1.27;0.88;;;19.60;97.80;;;;;;5050480;28;20113;-67
2022/06/02 12:07:05;;;;;;;1.20;0.80;;;19.60;97.70;;;;;;5050345;28;20056;-66
2022/06/02 12:09:46;;;;;;;1.73;0.80;;;19.50;97.70;;;;;;5052045;28;20100;-66
2022/06/02 12:12:41;;;;;;;2.08;0.70;;;19.30;98.50;;;;;;5050144;28;20044;-66
2022/06/02 12:15:31;;;;;;;1.52;0.60;;;19.00;98.90;;;;;;5049909;28;20044;-65
2022/06/02 12:18:26;;;;;;;2.08;0.90;;;19.00;98.80;;;;;;5051316;28;20067;-66
2022/06/02 12:21:11;;;;;;;1.38;0.80;;;19.00;98.70;;;;;;5033407;28;20430;-66
2022/06/02 12:23:43;;;;;;;1.15;0.60;;;19.10;99.40;;;;;;5049781;28;20040;-65
2022/06/02 12:26:45;;;;;;;1.80;0.70;;;19.10;98.10;;;;;;5051556;28;20122;-66
2022/06/02 12:29:29;;;;;;;1.90;0.80;;;19.10;98.70;;;;;;5050058;28;20131;-66
2022/06/02 12:32:34;;;;;;;1.92;0.80;;;19.10;98.50;;;;;;5051922;28;20486;-66
2022/06/02 12:35:30;;;;;;;2.15;0.80;;;19.20;97.90;;;;;;5043997;28;20061;-66
2022/06/02 12:38:11;;;;;;;0.65;0.65;;;19.20;98.50;;;;;;5050631;28;20399;-66
2022/06/02 12:40:36;;;;;;;3.20;0.80;;;19.10;98.80;;;;;;5050455;28;20551;-65
2022/06/02 12:43:23;;;;;;;1.98;0.73;;;19.00;98.60;;;;;;5051322;28;20115;-66
2022/06/02 12:46:02;;;;;;;2.40;0.90;;;19.20;99.50;;;;;;5033838;28;20056;-67
2022/06/02 12:49:32;;;;;;;3.78;1.10;;;19.30;98.60;;;;;;5049950;28;20048;-66
2022/06/02 12:52:19;;;;;;;1.50;0.70;;;19.10;98.10;;;;;;5028923;28;20054;-65
2022/06/02 12:55:05;;;;;;;1.88;0.65;;;19.20;98.60;;;;;;5012474;28;20041;-66
2022/06/02 12:58:15;;;;;;;0.98;0.60;;;19.20;98.10;;;;;;5012376;28;20528;-65
2022/06/02 13:01:17;;;;;;;0.88;0.80;;;19.20;98.10;;;;;;4953861;28;20055;-66
2022/06/02 13:04:01;;;;;;;0.73;0.63;;;19.30;97.80;;;;;;4957090;28;20062;-66
2022/06/02 13:07:04;;;;;;;1.08;0.70;;;19.20;97.60;;;;;;4953609;28;20051;-66
2022/06/02 13:09:50;;;;;;;2.83;0.80;;;19.40;98.50;;;;;;4969682;28;20086;-66
2022/06/02 13:12:43;;;;;;;1.27;0.80;;;19.60;98.50;;;;;;4953711;28;20055;-66
2022/06/02 13:15:27;;;;;;;0.75;0.57;;;19.70;98.80;;;;;;4969684;28;20051;-66
2022/06/02 13:18:29;;;;;;;0.77;0.70;;;19.60;98.60;;;;;;4969690;28;20035;-66
2022/06/02 13:21:14;;;;;;;1.88;0.70;;;19.50;97.50;;;;;;4953589;28;20043;-66
2022/06/02 13:24:16;;;;;;;1.17;0.50;;;19.30;98.30;;;;;;4953922;28;20058;-66
2022/06/02 13:26:45;;;;;;;;;;;19.10;98.50;;;;;;4930607;29;20050;-66
2022/06/02 13:29:36;;;;;;;0.95;0.60;;;18.80;98.60;;;;;;4966110;28;20369;-67
2022/06/02 13:32:41;;;;;;;5.00;0.80;;;18.60;98.50;;;;;;4953513;28;20133;-66
2022/06/02 13:35:37;;;;;;;1.00;0.57;;;18.50;98.40;;;;;;4859044;29;20390;-66
2022/06/02 13:38:39;;;;;;;1.25;0.60;;;18.30;99.00;;;;;;4875576;29;20049;-67
2022/06/02 13:41:31;;;;;;;0.75;0.60;;;18.30;98.40;;;;;;4893299;29;20040;-66
2022/06/02 13:44:12;;;;;;;1.27;0.70;;;18.30;98.20;;;;;;4890774;29;20060;-67
2022/06/02 13:46:49;;;;;;;1.48;0.80;;;18.40;98.30;;;;;;4877055;29;20304;-66
2022/06/02 13:49:52;;;;;;;0.50;0.50;;;18.30;98.20;;;;;;4896673;29;20056;-65
2022/06/02 13:52:49;;;;;;;3.50;0.80;;;18.30;97.90;;;;;;4896569;29;20049;-65
2022/06/02 13:59:14;;;;;;;1.20;0.70;;;18.20;98.30;;;;;;4859606;29;20070;-66
2022/06/02 14:01:58;;;;;;;1.33;0.70;;;18.20;98.90;;;;;;4841003;29;20081;-66
2022/06/02 14:04:49;;;;;;;0.70;0.60;;;18.30;99.60;;;;;;4809900;29;20046;-65
2022/06/02 14:07:35;;;;;;;2.10;0.70;;;18.50;99.90;;;;;;4840700;29;20122;-66
2022/06/02 14:10:22;;;;;;;1.67;0.77;;;18.70;99.80;;;;;;4825554;29;20510;-66
2022/06/02 14:13:11;;;;;;;0.90;0.63;;;18.90;99.40;;;;;;4856776;29;20140;-66
2022/06/02 14:16:00;;;;;;;0.93;0.70;;;18.80;98.80;;;;;;4861636;29;20059;-66
2022/06/02 14:18:44;;;;;;;0.65;0.50;;;18.90;99.50;;;;;;4862449;29;20067;-66
2022/06/02 14:21:19;;;;;;;0.63;0.63;;;19.00;99.40;;;;;;4877782;29;20115;-65
2022/06/02 14:24:02;;;;;;;0.88;0.70;;;18.90;99.40;;;;;;4878129;29;20059;-66
2022/06/02 14:26:36;;;;;;;0.98;0.57;;;19.00;99.70;;;;;;4877725;29;20136;-66
2022/06/02 14:29:25;;;;;;;0.70;0.70;;;19.10;99.60;;;;;;4862514;29;20057;-66
2022/06/02 14:32:11;;;;;;;0.65;0.55;;;19.20;98.90;;;;;;4878032;29;20534;-66
2022/06/02 14:35:03;;;;;;;3.33;0.70;;;19.20;99.10;;;;;;4919524;28;20093;-66
2022/06/02 14:37:32;;;;;;;1.27;0.68;;;19.30;98.80;;;;;;4992039;28;20046;-66
2022/06/02 14:40:08;;;;;;;1.40;0.95;;;19.40;98.80;;;;;;5014901;28;20046;-66
2022/06/02 14:43:14;;;;;;;2.05;0.80;;;19.50;98.90;;;;;;5031450;28;20443;-66